sensor_id;sensor_type;location;lat;lon;timestamp;temperature;humidity
19898;DHT22;10111;50.814;4.572;2023-09-08T00:01:38;19.70;99.90
19898;DHT22;10111;50.814;4.572;2023-09-08T00:04:03;19.70;99.90
19898;DHT22;10111;50.814;4.572;2023-09-08T00:06:29;19.70;99.90
19898;DHT22;10111;50.814;4.572;2023-09-08T00:08:55;19.70;99.90
19898;DHT22;10111;50.814;4.572;2023-09-08T00:11:20;19.70;99.90
19898;DHT22;10111;50.814;4.572;2023-09-08T00:13:46;19.60;99.90
19898;DHT22;10111;50.814;4.572;2023-09-08T00:16:12;19.60;99.90
19898;DHT22;10111;50.814;4.572;2023-09-08T00:18:37;19.60;99.90
19898;DHT22;10111;50.814;4.572;2023-09-08T00:21:03;19.60;99.90
19898;DHT22;10111;50.814;4.572;2023-09-08T00:23:29;19.60;99.90
19898;DHT22;10111;50.814;4.572;2023-09-08T00:25:54;19.60;99.90
19898;DHT22;10111;50.814;4.572;2023-09-08T00:28:20;19.50;99.90
19898;DHT22;10111;50.814;4.572;2023-09-08T00:30:45;19.50;99.90
19898;DHT22;10111;50.814;4.572;2023-09-08T00:33:11;19.50;99.90
19898;DHT22;10111;50.814;4.572;2023-09-08T00:35:39;19.50;99.90
19898;DHT22;10111;50.814;4.572;2023-09-08T00:38:04;19.40;99.90
19898;DHT22;10111;50.814;4.572;2023-09-08T00:40:30;19.40;99.90
19898;DHT22;10111;50.814;4.572;2023-09-08T00:42:56;19.40;99.90
19898;DHT22;10111;50.814;4.572;2023-09-08T00:45:22;19.40;99.90
19898;DHT22;10111;50.814;4.572;2023-09-08T00:47:48;19.30;99.90
19898;DHT22;10111;50.814;4.572;2023-09-08T00:50:14;19.30;99.90
19898;DHT22;10111;50.814;4.572;2023-09-08T00:52:40;19.30;99.90
19898;DHT22;10111;50.814;4.572;2023-09-08T00:55:06;19.30;99.90
19898;DHT22;10111;50.814;4.572;2023-09-08T00:57:32;19.20;99.90
19898;DHT22;10111;50.814;4.572;2023-09-08T00:59:58;19.20;99.90
19898;DHT22;10111;50.814;4.572;2023-09-08T01:02:24;19.20;99.90
19898;DHT22;10111;50.814;4.572;2023-09-08T01:04:50;19.10;99.90
19898;DHT22;10111;50.814;4.572;2023-09-08T01:07:16;19.10;99.90
19898;DHT22;10111;50.814;4.572;2023-09-08T01:09:45;19.10;99.90
19898;DHT22;10111;50.814;4.572;2023-09-08T01:12:11;19.10;99.90
19898;DHT22;10111;50.814;4.572;2023-09-08T01:14:37;19.10;99.90
19898;DHT22;10111;50.814;4.572;2023-09-08T01:17:03;19.10;99.90
19898;DHT22;10111;50.814;4.572;2023-09-08T01:19:28;19.10;99.90
19898;DHT22;10111;50.814;4.572;2023-09-08T01:25:18;19.10;99.90
19898;DHT22;10111;50.814;4.572;2023-09-08T01:27:55;19.00;99.90
19898;DHT22;10111;50.814;4.572;2023-09-08T01:30:25;19.00;99.90
19898;DHT22;10111;50.814;4.572;2023-09-08T01:32:53;19.00;99.90
19898;DHT22;10111;50.814;4.572;2023-09-08T01:35:19;19.00;99.90
19898;DHT22;10111;50.814;4.572;2023-09-08T01:37:46;18.90;99.90
19898;DHT22;10111;50.814;4.572;2023-09-08T01:40:12;18.90;99.90
19898;DHT22;10111;50.814;4.572;2023-09-08T01:42:38;18.90;99.90
19898;DHT22;10111;50.814;4.572;2023-09-08T01:45:05;18.90;99.90
19898;DHT22;10111;50.814;4.572;2023-09-08T01:47:31;18.90;99.90
19898;DHT22;10111;50.814;4.572;2023-09-08T01:49:57;18.90;99.90
19898;DHT22;10111;50.814;4.572;2023-09-08T01:52:24;18.90;99.90
19898;DHT22;10111;50.814;4.572;2023-09-08T01:54:50;18.90;99.90
19898;DHT22;10111;50.814;4.572;2023-09-08T01:57:16;18.90;99.90
19898;DHT22;10111;50.814;4.572;2023-09-08T01:59:42;18.90;99.90
19898;DHT22;10111;50.814;4.572;2023-09-08T02:02:07;18.90;99.90
19898;DHT22;10111;50.814;4.572;2023-09-08T02:04:33;18.90;99.90
19898;DHT22;10111;50.814;4.572;2023-09-08T02:06:59;18.90;99.90
19898;DHT22;10111;50.814;4.572;2023-09-08T02:11:57;18.80;99.90
19898;DHT22;10111;50.814;4.572;2023-09-08T02:14:23;18.80;99.90
19898;DHT22;10111;50.814;4.572;2023-09-08T02:16:49;18.80;99.90
19898;DHT22;10111;50.814;4.572;2023-09-08T02:19:14;18.80;99.90
19898;DHT22;10111;50.814;4.572;2023-09-08T02:21:40;18.80;99.90
19898;DHT22;10111;50.814;4.572;2023-09-08T02:24:06;18.80;99.90
19898;DHT22;10111;50.814;4.572;2023-09-08T02:26:31;18.70;99.90
19898;DHT22;10111;50.814;4.572;2023-09-08T02:28:59;18.70;99.90
19898;DHT22;10111;50.814;4.572;2023-09-08T02:31:26;18.70;99.90
19898;DHT22;10111;50.814;4.572;2023-09-08T02:33:52;18.70;99.90
19898;DHT22;10111;50.814;4.572;2023-09-08T02:36:17;18.70;99.90
19898;DHT22;10111;50.814;4.572;2023-09-08T02:38:43;18.60;99.90
19898;DHT22;10111;50.814;4.572;2023-09-08T02:41:09;18.60;99.90
19898;DHT22;10111;50.814;4.572;2023-09-08T02:43:34;18.60;99.90
19898;DHT22;10111;50.814;4.572;2023-09-08T02:46:00;18.60;99.90
19898;DHT22;10111;50.814;4.572;2023-09-08T02:48:25;18.60;99.90
19898;DHT22;10111;50.814;4.572;2023-09-08T02:50:51;18.60;99.90
19898;DHT22;10111;50.814;4.572;2023-09-08T02:53:19;18.50;99.90
19898;DHT22;10111;50.814;4.572;2023-09-08T02:55:45;18.50;99.90
19898;DHT22;10111;50.814;4.572;2023-09-08T02:58:11;18.50;99.90
19898;DHT22;10111;50.814;4.572;2023-09-08T03:00:37;18.40;99.90
19898;DHT22;10111;50.814;4.572;2023-09-08T03:03:02;18.50;99.90
19898;DHT22;10111;50.814;4.572;2023-09-08T03:05:28;18.40;99.90
19898;DHT22;10111;50.814;4.572;2023-09-08T03:07:54;18.40;99.90
19898;DHT22;10111;50.814;4.572;2023-09-08T03:10:19;18.40;99.90
19898;DHT22;10111;50.814;4.572;2023-09-08T03:12:45;18.30;99.90
19898;DHT22;10111;50.814;4.572;2023-09-08T03:15:11;18.30;99.90
19898;DHT22;10111;50.814;4.572;2023-09-08T03:17:36;18.30;99.90
19898;DHT22;10111;50.814;4.572;2023-09-08T03:20:02;18.30;99.90
19898;DHT22;10111;50.814;4.572;2023-09-08T03:22:32;18.30;99.90
19898;DHT22;10111;50.814;4.572;2023-09-08T03:24:58;18.20;99.90
19898;DHT22;10111;50.814;4.572;2023-09-08T03:27:23;18.20;99.90
19898;DHT22;10111;50.814;4.572;2023-09-08T03:29:49;18.20;99.90
19898;DHT22;10111;50.814;4.572;2023-09-08T03:32:15;18.20;99.90
19898;DHT22;10111;50.814;4.572;2023-09-08T03:34:40;18.20;99.90
19898;DHT22;10111;50.814;4.572;2023-09-08T03:37:06;18.20;99.90
19898;DHT22;10111;50.814;4.572;2023-09-08T03:39:32;18.20;99.90
19898;DHT22;10111;50.814;4.572;2023-09-08T03:41:57;18.20;99.90
19898;DHT22;10111;50.814;4.572;2023-09-08T03:44:23;18.10;99.90
19898;DHT22;10111;50.814;4.572;2023-09-08T03:46:49;18.10;99.90
19898;DHT22;10111;50.814;4.572;2023-09-08T03:49:14;18.10;99.90
19898;DHT22;10111;50.814;4.572;2023-09-08T03:51:40;18.00;99.90
19898;DHT22;10111;50.814;4.572;2023-09-08T03:54:05;18.00;99.90
19898;DHT22;10111;50.814;4.572;2023-09-08T03:56:31;18.10;99.90
19898;DHT22;10111;50.814;4.572;2023-09-08T03:58:57;18.00;99.90
19898;DHT22;10111;50.814;4.572;2023-09-08T04:01:22;18.00;99.90
19898;DHT22;10111;50.814;4.572;2023-09-08T04:03:48;18.00;99.90
19898;DHT22;10111;50.814;4.572;2023-09-08T04:06:13;18.00;99.90
19898;DHT22;10111;50.814;4.572;2023-09-08T04:08:39;17.90;99.90
19898;DHT22;10111;50.814;4.572;2023-09-08T04:11:05;17.90;99.90
19898;DHT22;10111;50.814;4.572;2023-09-08T04:13:30;17.90;99.90
19898;DHT22;10111;50.814;4.572;2023-09-08T04:15:56;17.90;99.90
19898;DHT22;10111;50.814;4.572;2023-09-08T04:18:22;17.90;99.90
19898;DHT22;10111;50.814;4.572;2023-09-08T04:20:47;17.80;99.90
19898;DHT22;10111;50.814;4.572;2023-09-08T04:23:13;17.80;99.90
19898;DHT22;10111;50.814;4.572;2023-09-08T04:25:39;17.80;99.90
19898;DHT22;10111;50.814;4.572;2023-09-08T04:28:04;17.80;99.90
19898;DHT22;10111;50.814;4.572;2023-09-08T04:30:30;17.80;99.90
19898;DHT22;10111;50.814;4.572;2023-09-08T04:32:56;17.70;99.90
19898;DHT22;10111;50.814;4.572;2023-09-08T04:35:21;17.70;99.90
19898;DHT22;10111;50.814;4.572;2023-09-08T04:37:48;17.70;99.90
19898;DHT22;10111;50.814;4.572;2023-09-08T04:40:13;17.70;99.90
19898;DHT22;10111;50.814;4.572;2023-09-08T04:42:39;17.70;99.90
19898;DHT22;10111;50.814;4.572;2023-09-08T04:45:05;17.70;99.90
19898;DHT22;10111;50.814;4.572;2023-09-08T04:47:31;17.70;99.90
19898;DHT22;10111;50.814;4.572;2023-09-08T04:49:57;17.70;99.90
19898;DHT22;10111;50.814;4.572;2023-09-08T04:52:23;17.70;99.90
19898;DHT22;10111;50.814;4.572;2023-09-08T04:54:48;17.60;99.90
19898;DHT22;10111;50.814;4.572;2023-09-08T04:57:14;17.60;99.90
19898;DHT22;10111;50.814;4.572;2023-09-08T04:59:39;17.60;99.90
19898;DHT22;10111;50.814;4.572;2023-09-08T05:02:05;17.60;99.90
19898;DHT22;10111;50.814;4.572;2023-09-08T05:04:31;17.60;99.90
19898;DHT22;10111;50.814;4.572;2023-09-08T05:06:56;17.60;99.90
19898;DHT22;10111;50.814;4.572;2023-09-08T05:09:22;17.60;99.90
19898;DHT22;10111;50.814;4.572;2023-09-08T05:11:47;17.60;99.90
19898;DHT22;10111;50.814;4.572;2023-09-08T05:14:13;17.60;99.90
19898;DHT22;10111;50.814;4.572;2023-09-08T05:16:39;17.60;99.90
19898;DHT22;10111;50.814;4.572;2023-09-08T05:19:11;17.60;99.90
19898;DHT22;10111;50.814;4.572;2023-09-08T05:21:37;17.60;99.90
19898;DHT22;10111;50.814;4.572;2023-09-08T05:24:03;17.60;99.90
19898;DHT22;10111;50.814;4.572;2023-09-08T05:26:29;17.60;99.90
19898;DHT22;10111;50.814;4.572;2023-09-08T05:28:55;17.60;99.90
19898;DHT22;10111;50.814;4.572;2023-09-08T05:31:20;17.60;99.90
19898;DHT22;10111;50.814;4.572;2023-09-08T05:33:46;17.70;99.90
19898;DHT22;10111;50.814;4.572;2023-09-08T05:36:12;17.70;99.90
19898;DHT22;10111;50.814;4.572;2023-09-08T05:38:38;17.70;99.90
19898;DHT22;10111;50.814;4.572;2023-09-08T05:41:03;17.70;99.90
19898;DHT22;10111;50.814;4.572;2023-09-08T05:43:29;17.70;99.90
19898;DHT22;10111;50.814;4.572;2023-09-08T05:45:54;17.70;99.90
19898;DHT22;10111;50.814;4.572;2023-09-08T05:48:20;17.70;99.90
19898;DHT22;10111;50.814;4.572;2023-09-08T05:50:46;17.80;99.90
19898;DHT22;10111;50.814;4.572;2023-09-08T05:53:11;17.80;99.90
19898;DHT22;10111;50.814;4.572;2023-09-08T05:55:37;17.90;99.90
19898;DHT22;10111;50.814;4.572;2023-09-08T05:58:03;18.00;99.90
19898;DHT22;10111;50.814;4.572;2023-09-08T06:00:29;18.10;99.90
19898;DHT22;10111;50.814;4.572;2023-09-08T06:02:54;18.20;99.90
19898;DHT22;10111;50.814;4.572;2023-09-08T06:05:20;18.30;99.90
19898;DHT22;10111;50.814;4.572;2023-09-08T06:07:46;18.40;99.90
19898;DHT22;10111;50.814;4.572;2023-09-08T06:10:11;18.50;99.90
19898;DHT22;10111;50.814;4.572;2023-09-08T06:12:37;18.60;99.90
19898;DHT22;10111;50.814;4.572;2023-09-08T06:15:03;18.80;99.90
19898;DHT22;10111;50.814;4.572;2023-09-08T06:17:29;18.90;99.90
19898;DHT22;10111;50.814;4.572;2023-09-08T06:19:54;19.00;99.90
19898;DHT22;10111;50.814;4.572;2023-09-08T06:22:20;19.10;99.90
19898;DHT22;10111;50.814;4.572;2023-09-08T06:24:45;19.20;99.90
19898;DHT22;10111;50.814;4.572;2023-09-08T06:27:11;19.30;99.90
19898;DHT22;10111;50.814;4.572;2023-09-08T06:29:38;19.40;99.90
19898;DHT22;10111;50.814;4.572;2023-09-08T06:32:06;19.60;99.90
19898;DHT22;10111;50.814;4.572;2023-09-08T06:34:32;19.70;99.90
19898;DHT22;10111;50.814;4.572;2023-09-08T06:36:59;19.90;99.90
19898;DHT22;10111;50.814;4.572;2023-09-08T06:39:25;20.00;99.90
19898;DHT22;10111;50.814;4.572;2023-09-08T06:41:51;20.20;99.90
19898;DHT22;10111;50.814;4.572;2023-09-08T06:44:16;20.30;99.90
19898;DHT22;10111;50.814;4.572;2023-09-08T06:46:42;20.50;99.90
19898;DHT22;10111;50.814;4.572;2023-09-08T06:49:08;20.60;99.90
19898;DHT22;10111;50.814;4.572;2023-09-08T06:51:33;20.70;99.90
19898;DHT22;10111;50.814;4.572;2023-09-08T06:53:59;20.90;99.90
19898;DHT22;10111;50.814;4.572;2023-09-08T06:56:25;21.00;99.90
19898;DHT22;10111;50.814;4.572;2023-09-08T06:58:51;21.20;99.90
19898;DHT22;10111;50.814;4.572;2023-09-08T07:01:17;21.40;99.90
19898;DHT22;10111;50.814;4.572;2023-09-08T07:03:43;21.60;99.90
19898;DHT22;10111;50.814;4.572;2023-09-08T07:06:08;21.70;99.90
19898;DHT22;10111;50.814;4.572;2023-09-08T07:08:34;21.90;99.90
19898;DHT22;10111;50.814;4.572;2023-09-08T07:10:59;22.00;99.90
19898;DHT22;10111;50.814;4.572;2023-09-08T07:13:25;22.10;99.90
19898;DHT22;10111;50.814;4.572;2023-09-08T07:15:51;22.20;99.90
19898;DHT22;10111;50.814;4.572;2023-09-08T07:18:16;22.30;99.90
19898;DHT22;10111;50.814;4.572;2023-09-08T07:20:46;22.50;99.90
19898;DHT22;10111;50.814;4.572;2023-09-08T07:23:13;22.70;99.90
19898;DHT22;10111;50.814;4.572;2023-09-08T07:25:39;22.80;99.90
19898;DHT22;10111;50.814;4.572;2023-09-08T07:28:04;23.00;99.90
19898;DHT22;10111;50.814;4.572;2023-09-08T07:30:32;23.10;99.90
19898;DHT22;10111;50.814;4.572;2023-09-08T07:32:57;23.30;99.90
19898;DHT22;10111;50.814;4.572;2023-09-08T07:35:23;23.30;99.90
19898;DHT22;10111;50.814;4.572;2023-09-08T07:37:49;23.40;99.90
19898;DHT22;10111;50.814;4.572;2023-09-08T07:40:15;23.70;99.90
19898;DHT22;10111;50.814;4.572;2023-09-08T07:42:41;23.90;99.90
19898;DHT22;10111;50.814;4.572;2023-09-08T07:45:07;23.90;99.90
19898;DHT22;10111;50.814;4.572;2023-09-08T07:47:35;24.00;99.90
19898;DHT22;10111;50.814;4.572;2023-09-08T07:50:36;24.20;99.90
19898;DHT22;10111;50.814;4.572;2023-09-08T07:53:02;24.30;99.90
19898;DHT22;10111;50.814;4.572;2023-09-08T07:55:27;24.30;99.90
19898;DHT22;10111;50.814;4.572;2023-09-08T07:57:54;24.50;99.90
19898;DHT22;10111;50.814;4.572;2023-09-08T08:00:20;24.70;99.90
19898;DHT22;10111;50.814;4.572;2023-09-08T08:02:48;24.80;99.90
19898;DHT22;10111;50.814;4.572;2023-09-08T08:05:15;24.80;99.90
19898;DHT22;10111;50.814;4.572;2023-09-08T08:07:42;24.90;99.90
19898;DHT22;10111;50.814;4.572;2023-09-08T08:10:08;25.00;99.90
19898;DHT22;10111;50.814;4.572;2023-09-08T08:12:34;25.10;99.90
19898;DHT22;10111;50.814;4.572;2023-09-08T08:15:00;25.30;99.90
19898;DHT22;10111;50.814;4.572;2023-09-08T08:17:25;25.50;99.90
19898;DHT22;10111;50.814;4.572;2023-09-08T08:19:54;25.70;99.90
19898;DHT22;10111;50.814;4.572;2023-09-08T08:22:20;25.80;99.90
19898;DHT22;10111;50.814;4.572;2023-09-08T08:24:45;25.70;99.90
19898;DHT22;10111;50.814;4.572;2023-09-08T08:27:11;25.80;99.90
19898;DHT22;10111;50.814;4.572;2023-09-08T08:29:38;25.90;99.90
19898;DHT22;10111;50.814;4.572;2023-09-08T08:32:04;26.10;99.90
19898;DHT22;10111;50.814;4.572;2023-09-08T08:34:29;26.20;99.90
19898;DHT22;10111;50.814;4.572;2023-09-08T08:36:55;26.40;99.90
19898;DHT22;10111;50.814;4.572;2023-09-08T08:39:21;26.50;99.90
19898;DHT22;10111;50.814;4.572;2023-09-08T08:41:46;26.60;99.90
19898;DHT22;10111;50.814;4.572;2023-09-08T08:44:13;26.60;99.90
19898;DHT22;10111;50.814;4.572;2023-09-08T08:46:41;26.70;99.90
19898;DHT22;10111;50.814;4.572;2023-09-08T08:49:09;26.80;99.90
19898;DHT22;10111;50.814;4.572;2023-09-08T08:51:36;26.80;99.90
19898;DHT22;10111;50.814;4.572;2023-09-08T08:54:04;26.90;99.90
19898;DHT22;10111;50.814;4.572;2023-09-08T08:56:31;27.00;99.90
19898;DHT22;10111;50.814;4.572;2023-09-08T08:58:58;27.00;99.90
19898;DHT22;10111;50.814;4.572;2023-09-08T09:01:26;27.20;99.90
19898;DHT22;10111;50.814;4.572;2023-09-08T09:03:52;27.30;99.90
19898;DHT22;10111;50.814;4.572;2023-09-08T09:06:18;27.40;99.90
19898;DHT22;10111;50.814;4.572;2023-09-08T09:08:45;27.50;99.90
19898;DHT22;10111;50.814;4.572;2023-09-08T09:11:11;27.50;99.90
19898;DHT22;10111;50.814;4.572;2023-09-08T09:13:37;27.60;99.90
19898;DHT22;10111;50.814;4.572;2023-09-08T09:16:03;27.70;99.90
19898;DHT22;10111;50.814;4.572;2023-09-08T09:18:30;27.70;99.90
19898;DHT22;10111;50.814;4.572;2023-09-08T09:20:59;27.70;99.90
19898;DHT22;10111;50.814;4.572;2023-09-08T09:23:33;27.70;99.90
19898;DHT22;10111;50.814;4.572;2023-09-08T09:25:59;27.90;99.90
19898;DHT22;10111;50.814;4.572;2023-09-08T09:28:33;27.90;99.90
19898;DHT22;10111;50.814;4.572;2023-09-08T09:30:58;27.90;99.90
19898;DHT22;10111;50.814;4.572;2023-09-08T09:33:24;28.00;99.90
19898;DHT22;10111;50.814;4.572;2023-09-08T09:35:53;28.20;99.90
19898;DHT22;10111;50.814;4.572;2023-09-08T09:38:19;28.30;99.90
19898;DHT22;10111;50.814;4.572;2023-09-08T09:40:46;28.30;99.90
19898;DHT22;10111;50.814;4.572;2023-09-08T09:43:13;28.30;99.90
19898;DHT22;10111;50.814;4.572;2023-09-08T09:45:39;28.30;99.90
19898;DHT22;10111;50.814;4.572;2023-09-08T09:48:06;28.40;99.90
19898;DHT22;10111;50.814;4.572;2023-09-08T09:50:35;28.30;99.90
19898;DHT22;10111;50.814;4.572;2023-09-08T09:55:36;28.30;99.90
19898;DHT22;10111;50.814;4.572;2023-09-08T09:58:03;28.40;99.90
19898;DHT22;10111;50.814;4.572;2023-09-08T10:00:30;28.30;99.90
19898;DHT22;10111;50.814;4.572;2023-09-08T10:02:57;28.30;99.90
19898;DHT22;10111;50.814;4.572;2023-09-08T10:05:24;28.20;99.90
19898;DHT22;10111;50.814;4.572;2023-09-08T10:07:51;28.20;99.90
19898;DHT22;10111;50.814;4.572;2023-09-08T10:10:18;28.20;99.90
19898;DHT22;10111;50.814;4.572;2023-09-08T10:12:45;28.10;99.90
19898;DHT22;10111;50.814;4.572;2023-09-08T10:15:11;28.10;99.90
19898;DHT22;10111;50.814;4.572;2023-09-08T10:17:40;28.00;99.90
19898;DHT22;10111;50.814;4.572;2023-09-08T10:20:08;28.10;99.90
19898;DHT22;10111;50.814;4.572;2023-09-08T10:22:40;28.00;99.90
19898;DHT22;10111;50.814;4.572;2023-09-08T10:25:08;28.00;99.90
19898;DHT22;10111;50.814;4.572;2023-09-08T10:27:34;28.00;99.90
19898;DHT22;10111;50.814;4.572;2023-09-08T10:30:05;28.10;99.90
19898;DHT22;10111;50.814;4.572;2023-09-08T10:32:33;28.20;99.90
19898;DHT22;10111;50.814;4.572;2023-09-08T10:35:01;28.20;99.90
19898;DHT22;10111;50.814;4.572;2023-09-08T10:37:28;28.00;99.90
19898;DHT22;10111;50.814;4.572;2023-09-08T10:43:09;27.90;99.90
19898;DHT22;10111;50.814;4.572;2023-09-08T10:45:35;28.00;99.90
19898;DHT22;10111;50.814;4.572;2023-09-08T10:48:01;28.00;99.90
19898;DHT22;10111;50.814;4.572;2023-09-08T10:50:32;28.00;99.90
19898;DHT22;10111;50.814;4.572;2023-09-08T10:53:14;28.10;99.90
19898;DHT22;10111;50.814;4.572;2023-09-08T10:55:50;28.00;99.90
19898;DHT22;10111;50.814;4.572;2023-09-08T10:58:30;28.10;99.90
19898;DHT22;10111;50.814;4.572;2023-09-08T11:00:59;28.00;99.90
19898;DHT22;10111;50.814;4.572;2023-09-08T11:06:10;28.00;99.90
19898;DHT22;10111;50.814;4.572;2023-09-08T11:08:42;28.00;99.90
19898;DHT22;10111;50.814;4.572;2023-09-08T11:11:10;28.00;99.90
19898;DHT22;10111;50.814;4.572;2023-09-08T11:13:36;28.00;99.90
19898;DHT22;10111;50.814;4.572;2023-09-08T11:16:02;28.10;99.90
19898;DHT22;10111;50.814;4.572;2023-09-08T11:18:29;28.20;99.90
19898;DHT22;10111;50.814;4.572;2023-09-08T11:20:56;28.20;99.90
19898;DHT22;10111;50.814;4.572;2023-09-08T11:23:22;28.40;99.90
19898;DHT22;10111;50.814;4.572;2023-09-08T11:25:50;28.40;99.90
19898;DHT22;10111;50.814;4.572;2023-09-08T11:28:17;28.40;99.90
19898;DHT22;10111;50.814;4.572;2023-09-08T11:30:45;28.50;99.90
19898;DHT22;10111;50.814;4.572;2023-09-08T11:33:19;28.50;99.90
19898;DHT22;10111;50.814;4.572;2023-09-08T11:35:47;28.60;99.90
19898;DHT22;10111;50.814;4.572;2023-09-08T11:38:13;28.70;99.90
19898;DHT22;10111;50.814;4.572;2023-09-08T11:40:39;28.70;99.90
19898;DHT22;10111;50.814;4.572;2023-09-08T11:43:06;28.70;99.90
19898;DHT22;10111;50.814;4.572;2023-09-08T11:45:35;28.70;99.90
19898;DHT22;10111;50.814;4.572;2023-09-08T11:48:01;28.80;99.90
19898;DHT22;10111;50.814;4.572;2023-09-08T11:50:26;28.90;99.90
19898;DHT22;10111;50.814;4.572;2023-09-08T11:52:53;28.90;99.90
19898;DHT22;10111;50.814;4.572;2023-09-08T11:55:21;29.00;99.90
19898;DHT22;10111;50.814;4.572;2023-09-08T11:57:52;29.00;99.90
19898;DHT22;10111;50.814;4.572;2023-09-08T12:00:23;29.00;99.90
19898;DHT22;10111;50.814;4.572;2023-09-08T12:02:51;29.00;99.90
19898;DHT22;10111;50.814;4.572;2023-09-08T12:05:23;29.00;99.90
19898;DHT22;10111;50.814;4.572;2023-09-08T12:07:51;29.00;99.90
19898;DHT22;10111;50.814;4.572;2023-09-08T12:10:16;29.20;99.90
19898;DHT22;10111;50.814;4.572;2023-09-08T12:15:10;29.20;99.90
19898;DHT22;10111;50.814;4.572;2023-09-08T12:17:49;29.20;99.90
19898;DHT22;10111;50.814;4.572;2023-09-08T12:20:16;29.30;99.90
19898;DHT22;10111;50.814;4.572;2023-09-08T12:22:49;29.40;99.90
19898;DHT22;10111;50.814;4.572;2023-09-08T12:25:18;29.30;99.90
19898;DHT22;10111;50.814;4.572;2023-09-08T12:27:50;29.20;99.90
19898;DHT22;10111;50.814;4.572;2023-09-08T12:30:20;29.10;99.90
19898;DHT22;10111;50.814;4.572;2023-09-08T12:32:48;29.20;99.90
19898;DHT22;10111;50.814;4.572;2023-09-08T12:35:20;29.20;99.90
19898;DHT22;10111;50.814;4.572;2023-09-08T12:37:47;29.30;99.90
19898;DHT22;10111;50.814;4.572;2023-09-08T12:40:13;29.30;99.90
19898;DHT22;10111;50.814;4.572;2023-09-08T12:42:40;29.40;99.90
19898;DHT22;10111;50.814;4.572;2023-09-08T12:45:06;29.40;99.90
19898;DHT22;10111;50.814;4.572;2023-09-08T12:47:32;29.40;99.90
19898;DHT22;10111;50.814;4.572;2023-09-08T12:49:58;29.50;99.90
19898;DHT22;10111;50.814;4.572;2023-09-08T12:52:24;29.50;99.90
19898;DHT22;10111;50.814;4.572;2023-09-08T12:54:49;29.50;99.90
19898;DHT22;10111;50.814;4.572;2023-09-08T12:57:15;29.40;99.90
19898;DHT22;10111;50.814;4.572;2023-09-08T12:59:40;29.50;99.90
19898;DHT22;10111;50.814;4.572;2023-09-08T13:02:06;29.50;99.90
19898;DHT22;10111;50.814;4.572;2023-09-08T13:04:32;29.50;99.90
19898;DHT22;10111;50.814;4.572;2023-09-08T13:06:58;29.50;99.90
19898;DHT22;10111;50.814;4.572;2023-09-08T13:09:26;29.40;99.90
19898;DHT22;10111;50.814;4.572;2023-09-08T13:11:51;29.40;99.90
19898;DHT22;10111;50.814;4.572;2023-09-08T13:14:17;29.50;99.90
19898;DHT22;10111;50.814;4.572;2023-09-08T13:16:43;29.40;99.90
19898;DHT22;10111;50.814;4.572;2023-09-08T13:19:08;29.50;99.90
19898;DHT22;10111;50.814;4.572;2023-09-08T13:21:34;29.50;99.90
19898;DHT22;10111;50.814;4.572;2023-09-08T13:24:00;29.50;99.90
19898;DHT22;10111;50.814;4.572;2023-09-08T13:26:25;29.40;99.90
19898;DHT22;10111;50.814;4.572;2023-09-08T13:28:51;29.30;99.90
19898;DHT22;10111;50.814;4.572;2023-09-08T13:31:18;29.40;99.90
19898;DHT22;10111;50.814;4.572;2023-09-08T13:33:43;29.40;99.90
19898;DHT22;10111;50.814;4.572;2023-09-08T13:36:09;29.50;99.90
19898;DHT22;10111;50.814;4.572;2023-09-08T13:38:35;29.50;99.90
19898;DHT22;10111;50.814;4.572;2023-09-08T13:41:01;29.50;99.90
19898;DHT22;10111;50.814;4.572;2023-09-08T13:43:26;29.50;99.90
19898;DHT22;10111;50.814;4.572;2023-09-08T13:45:53;29.50;99.90
19898;DHT22;10111;50.814;4.572;2023-09-08T13:48:18;29.50;99.90
19898;DHT22;10111;50.814;4.572;2023-09-08T13:50:44;29.50;99.90
19898;DHT22;10111;50.814;4.572;2023-09-08T13:53:10;29.60;99.90
19898;DHT22;10111;50.814;4.572;2023-09-08T13:55:35;29.70;99.90
19898;DHT22;10111;50.814;4.572;2023-09-08T13:58:01;29.70;99.90
19898;DHT22;10111;50.814;4.572;2023-09-08T14:00:27;29.80;99.90
19898;DHT22;10111;50.814;4.572;2023-09-08T14:02:52;29.70;99.90
19898;DHT22;10111;50.814;4.572;2023-09-08T14:05:18;29.70;99.90
19898;DHT22;10111;50.814;4.572;2023-09-08T14:07:44;29.70;99.90
19898;DHT22;10111;50.814;4.572;2023-09-08T14:10:10;29.60;99.90
19898;DHT22;10111;50.814;4.572;2023-09-08T14:12:35;29.60;99.90
19898;DHT22;10111;50.814;4.572;2023-09-08T14:15:02;29.60;99.90
19898;DHT22;10111;50.814;4.572;2023-09-08T14:17:27;29.60;99.90
19898;DHT22;10111;50.814;4.572;2023-09-08T14:19:53;29.60;99.90
19898;DHT22;10111;50.814;4.572;2023-09-08T14:22:19;29.60;99.90
19898;DHT22;10111;50.814;4.572;2023-09-08T14:24:44;29.60;99.90
19898;DHT22;10111;50.814;4.572;2023-09-08T14:27:10;29.60;99.90
19898;DHT22;10111;50.814;4.572;2023-09-08T14:29:36;29.60;99.90
19898;DHT22;10111;50.814;4.572;2023-09-08T14:32:01;29.60;99.90
19898;DHT22;10111;50.814;4.572;2023-09-08T14:34:27;29.50;99.90
19898;DHT22;10111;50.814;4.572;2023-09-08T14:36:53;29.50;99.90
19898;DHT22;10111;50.814;4.572;2023-09-08T14:39:19;29.50;99.90
19898;DHT22;10111;50.814;4.572;2023-09-08T14:41:46;29.60;99.90
19898;DHT22;10111;50.814;4.572;2023-09-08T14:44:11;29.60;99.90
19898;DHT22;10111;50.814;4.572;2023-09-08T14:46:37;29.60;99.90
19898;DHT22;10111;50.814;4.572;2023-09-08T14:49:03;29.50;99.90
19898;DHT22;10111;50.814;4.572;2023-09-08T14:51:29;29.60;99.90
19898;DHT22;10111;50.814;4.572;2023-09-08T14:53:54;29.50;99.90
19898;DHT22;10111;50.814;4.572;2023-09-08T14:56:20;29.50;99.90
19898;DHT22;10111;50.814;4.572;2023-09-08T14:58:46;29.50;99.90
19898;DHT22;10111;50.814;4.572;2023-09-08T15:01:11;29.50;99.90
19898;DHT22;10111;50.814;4.572;2023-09-08T15:03:39;29.50;99.90
19898;DHT22;10111;50.814;4.572;2023-09-08T15:06:05;29.50;99.90
19898;DHT22;10111;50.814;4.572;2023-09-08T15:08:31;29.50;99.90
19898;DHT22;10111;50.814;4.572;2023-09-08T15:10:57;29.40;99.90
19898;DHT22;10111;50.814;4.572;2023-09-08T15:13:22;29.40;99.90
19898;DHT22;10111;50.814;4.572;2023-09-08T15:15:48;29.50;99.90
19898;DHT22;10111;50.814;4.572;2023-09-08T15:18:14;29.50;99.90
19898;DHT22;10111;50.814;4.572;2023-09-08T15:20:40;29.50;99.90
19898;DHT22;10111;50.814;4.572;2023-09-08T15:23:06;29.40;99.90
19898;DHT22;10111;50.814;4.572;2023-09-08T15:25:32;29.50;99.90
19898;DHT22;10111;50.814;4.572;2023-09-08T15:27:57;29.40;99.90
19898;DHT22;10111;50.814;4.572;2023-09-08T15:30:23;29.40;99.90
19898;DHT22;10111;50.814;4.572;2023-09-08T15:32:49;29.50;99.90
19898;DHT22;10111;50.814;4.572;2023-09-08T15:35:14;29.40;99.90
19898;DHT22;10111;50.814;4.572;2023-09-08T15:37:40;29.40;99.90
19898;DHT22;10111;50.814;4.572;2023-09-08T15:40:06;29.40;99.90
19898;DHT22;10111;50.814;4.572;2023-09-08T15:42:40;29.30;99.90